Weather at Newport Hospital & Clinic Heliport [CLOSED]

Public forecast

Using degrees Fahrenheit for public forecast. Weather courtesy of forecast.io.

Closest aviation weather report (METAR) to Newport Hospital & Clinic Heliport

Closest report is Newport Regional Airport, 4.2 nm (7.8 km) ENE. Retrieved UTC (0 seconds ago):

Closest aviation forecast (TAF) to Newport Hospital & Clinic Heliport

Closest forecast is Jonesboro Municipal Airport, 32.5 nm (60.3 km) ENE. Retrieved 2020/09/29 12:33 UTC (44 minutes ago):

TAF KJBR 291130Z 2912/3012 30007KT P6SM FEW250 FM291800 28010G15KT P6SM FEW250 FM292100 29008KT P6SM SCT250 FM300100 27003KT P6SM SCT250 FM300900 24003KT P6SM FEW250